Amity, Maine
Current Conditions -  °F | °C
As of 12:53 PM on Sunday 23 Nov 2014 (Local Time) from KHUL Reporting Station
Broken Clouds Broken Clouds  
Wind Chill: 36°   Ceiling: 5000
Heat Index: 41°   Visibility: 10mi
Dew Point: 31°   Wind: 7mph
Humidity: 67%   Direction: 230°SW
Pressure: 30"   Gusts: NA
Location:  45.8952°N, 67.8479°W
Report Text: KHUL 231753Z AUTO 23006KT 10SM BKN050 05/M01 A3000 RMK AO2 SLP164 T00501006 10056 21006 50004
Loading
Personal Weather Stations






























Interactive Weather Map New forecast layout! Learn more

10-Day Weather Forecast

Advertisements
Track Severe Weather on mobile